Terminal Aerodrome Forecast
Issued by NWS

Home | Current Version | Previous Version | Text Only | Print | Product List | Glossary On
Versions: 1 2 3 4 5 6 7 8 9 10 11 12 13
000
FTUS45 KFGZ 252300
TAFPGA
TAF
KPGA 252320Z 2600/2624 23010G15KT P6SM FEW100 SCT250
     FM260100 VRB05KT P6SM SCT250
     FM262200 26008G14KT P6SM FEW250=

USA.gov is the U.S. government's official web portal to all federal, state and local government web resources and services.